1TS1 weather

Laas Farm Airport
Pattison, Texas, United States

Public forecast

Using degrees Fahrenheit for public forecast. Weather courtesy of forecast.io.

METAR (pilot weather report)

Closest report is Houston Executive Airport, 8.1 nm (15.0 km) SE. Retrieved 2019/09/22 09:55 UTC (1 hour ago):

KTME 220955Z AUTO 12003KT 10SM CLR 24/24 A3002 RMK AO2

TAF (pilot weather forecast)

Forecast is more than 12 hours old.

Closest forecast is David Wayne Hooks Memorial Airport, 24.6 nm (45.6 km) ENE. Retrieved 2017/02/07 12:51 UTC (3 years ago):

TAF KDWH 071148Z 0712/0812 20009G15KT P6SM SCT022 OVC030 TEMPO 0712/0715 BKN018 FM071500 23010KT P6SM BKN015 FM071900 25010KT P6SM SCT025 FM080100 22005KT P6SM SCT250 TEMPO 0807/0809 3SM BR BKN013 FM080900 VRB03KT 2SM BR OVC008